Time;durP1;ratioP1;P1;durP2;ratioP2;P2;SDS_P1;SDS_P2;PMS_P1;PMS_P2;Temp;Humidity;BMP_temperature;BMP_pressure;BME280_temperature;BME280_humidity;BME280_pressure;Samples;Min_cycle;Max_cycle;Signal;HPM_P1;HPM_P2
2021/07/30 00:01:21;;;;;;;8.25;7.05;;;;;;;23.57;71.80;99667.26;1676692;84;21059;-77
2021/07/30 00:03:48;;;;;;;9.63;7.62;;;;;;;23.56;71.81;99666.19;1672336;84;21554;-77
2021/07/30 00:06:21;;;;;;;13.98;7.65;;;;;;;23.60;71.64;99664.49;1679570;84;21104;-78
2021/07/30 00:08:52;;;;;;;7.08;6.55;;;;;;;23.64;71.42;99662.80;1673164;84;21064;-77
2021/07/30 00:11:18;;;;;;;9.08;6.72;;;;;;;23.65;71.24;99657.64;1666049;84;21584;-77
2021/07/30 00:13:44;;;;;;;7.78;6.62;;;;;;;23.63;71.46;99655.77;1680208;84;21074;-77
2021/07/30 00:16:11;;;;;;;10.65;7.60;;;;;;;23.62;71.43;99654.12;1669290;84;21133;-77
2021/07/30 00:18:37;;;;;;;8.55;7.42;;;;;;;23.60;71.28;99650.89;1674120;84;21071;-77
2021/07/30 00:21:04;;;;;;;9.38;6.67;;;;;;;23.57;71.53;99646.86;1672951;84;21008;-77
2021/07/30 00:23:30;;;;;;;9.30;7.85;;;;;;;23.57;71.49;99640.61;1668293;84;21061;-79
2021/07/30 00:26:02;;;;;;;10.30;7.08;;;;;;;23.56;71.71;99637.63;1672939;85;21555;-79
2021/07/30 00:28:29;;;;;;;11.45;8.15;;;;;;;23.54;71.93;99638.47;1678855;84;21074;-78
2021/07/30 00:30:56;;;;;;;6.87;6.25;;;;;;;23.47;71.31;99640.17;1643916;85;21101;-78
2021/07/30 00:33:22;;;;;;;7.15;6.55;;;;;;;23.43;71.47;99634.53;1663006;84;21209;-78
2021/07/30 00:35:49;;;;;;;7.67;6.28;;;;;;;23.40;71.15;99635.09;1669260;84;21067;-79
2021/07/30 00:38:15;;;;;;;8.45;5.80;;;;;;;23.41;70.88;99629.11;1701139;84;21105;-79
2021/07/30 00:40:41;;;;;;;7.60;6.67;;;;;;;23.37;70.43;99621.27;1668848;84;21083;-79
2021/07/30 00:43:08;;;;;;;8.03;5.87;;;;;;;23.31;69.91;99621.33;1670758;84;21466;-78
2021/07/30 00:45:36;;;;;;;6.05;5.53;;;;;;;23.27;69.70;99624.93;1690762;83;21003;-78
2021/07/30 00:48:05;;;;;;;6.33;5.03;;;;;;;23.27;69.52;99623.57;1695310;83;21593;-77
2021/07/30 00:50:34;;;;;;;5.83;5.42;;;;;;;23.26;69.12;99618.69;1696493;83;21082;-79
2021/07/30 00:56:05;;;;;;;5.40;5.10;;;;;;;23.27;69.18;99619.49;1751857;79;22851;-80
2021/07/30 00:58:35;;;;;;;6.05;4.95;;;;;;;23.19;69.32;99628.27;1694900;83;20997;-77
2021/07/30 01:01:07;;;;;;;6.87;6.17;;;;;;;23.15;69.26;99621.27;1679460;83;21038;-77
2021/07/30 01:03:37;;;;;;;6.15;5.72;;;;;;;23.10;69.50;99617.24;1692645;83;21514;-78
2021/07/30 01:06:07;;;;;;;5.70;5.28;;;;;;;23.08;69.55;99620.24;1666279;84;21088;-78
2021/07/30 01:08:41;;;;;;;5.70;5.30;;;;;;;23.03;69.87;99612.66;1664435;84;21068;-78
2021/07/30 01:11:12;;;;;;;6.97;6.45;;;;;;;22.99;70.01;99607.00;1688707;83;21060;-78
2021/07/30 01:13:47;;;;;;;8.43;7.05;;;;;;;22.93;70.04;99617.67;1661406;84;21104;-77
2021/07/30 01:16:18;;;;;;;5.83;5.33;;;;;;;22.80;70.40;99614.27;1693026;83;21124;-78
2021/07/30 01:18:53;;;;;;;5.37;4.97;;;;;;;22.73;70.88;99609.16;1664150;83;21553;-77
2021/07/30 01:21:26;;;;;;;5.70;5.15;;;;;;;22.71;70.69;99612.72;1686107;84;21064;-77
2021/07/30 01:23:56;;;;;;;5.12;4.85;;;;;;;22.70;70.90;99607.04;1684738;83;20993;-77
2021/07/30 01:26:30;;;;;;;4.78;4.47;;;;;;;22.68;70.99;99614.11;1692124;83;21488;-77
2021/07/30 01:28:59;;;;;;;6.22;5.75;;;;;;;22.66;70.82;99609.52;1688252;83;21049;-77
2021/07/30 01:31:27;;;;;;;4.65;4.35;;;;;;;22.60;70.72;99622.05;1692002;82;21003;-77
2021/07/30 01:33:54;;;;;;;5.53;5.08;;;;;;;22.55;70.89;99619.66;1648866;85;21138;-78
2021/07/30 01:36:20;;;;;;;6.25;5.75;;;;;;;22.45;70.74;99606.70;1666229;84;21004;-77
2021/07/30 01:38:46;;;;;;;4.97;4.60;;;;;;;22.54;70.69;99620.73;1659755;84;21528;-78
2021/07/30 01:41:15;;;;;;;5.12;4.67;;;;;;;22.51;70.72;99622.69;1657426;84;21171;-79
2021/07/30 01:43:43;;;;;;;5.92;5.50;;;;;;;22.50;70.71;99625.68;1660884;84;21008;-77
2021/07/30 01:46:11;;;;;;;5.00;4.60;;;;;;;22.42;70.87;99630.38;1656770;84;21169;-77
2021/07/30 01:48:37;;;;;;;5.62;5.15;;;;;;;22.39;70.97;99640.44;1658803;84;21056;-77
2021/07/30 01:51:05;;;;;;;4.65;4.22;;;;;;;22.40;70.85;99635.28;1651579;84;21675;-77
2021/07/30 01:53:32;;;;;;;3.92;3.70;;;;;;;22.36;70.97;99640.47;1658348;84;21032;-78
2021/07/30 01:56:03;;;;;;;4.58;4.28;;;;;;;22.33;70.84;99636.95;1651826;84;21038;-77
2021/07/30 01:58:27;;;;;;;4.80;4.47;;;;;;;22.29;71.07;99635.91;1624310;86;21038;-78
2021/07/30 02:00:54;;;;;;;5.70;4.80;;;;;;;22.21;71.15;99642.72;1631489;86;20970;-77
2021/07/30 02:03:20;;;;;;;4.92;4.62;;;;;;;22.15;71.28;99639.23;1663338;85;21045;-77
2021/07/30 02:05:46;;;;;;;4.80;4.55;;;;;;;22.16;71.46;99638.67;1649157;85;21025;-77
2021/07/30 02:08:13;;;;;;;5.25;4.33;;;;;;;22.15;71.34;99644.66;1662105;85;21044;-78
2021/07/30 02:10:40;;;;;;;4.42;4.12;;;;;;;22.14;71.28;99646.29;1651347;85;21037;-77
2021/07/30 02:15:51;;;;;;;4.87;4.35;;;;;;;22.05;71.25;99643.91;1638512;86;21017;-76
2021/07/30 02:18:17;;;;;;;5.03;4.62;;;;;;;22.01;71.43;99638.78;1648008;86;21063;-77
2021/07/30 02:20:45;;;;;;;4.30;4.00;;;;;;;22.00;71.35;99643.41;1647130;85;21053;-77
2021/07/30 02:23:11;;;;;;;4.95;4.65;;;;;;;22.00;71.26;99641.22;1642085;86;21094;-78
2021/07/30 02:25:37;;;;;;;5.92;3.90;;;;;;;21.97;71.30;99646.11;1620935;86;21041;-78
2021/07/30 02:28:04;;;;;;;5.72;4.22;;;;;;;21.99;71.32;99650.47;1634863;86;21495;-77
2021/07/30 02:30:30;;;;;;;5.35;4.95;;;;;;;21.99;71.15;99651.82;1637399;86;21007;-78
2021/07/30 02:32:56;;;;;;;4.92;4.62;;;;;;;21.95;71.18;99661.87;1641180;86;20972;-77
2021/07/30 02:35:22;;;;;;;4.58;4.17;;;;;;;21.93;71.35;99658.63;1608491;87;21042;-78
2021/07/30 02:37:49;;;;;;;5.42;4.45;;;;;;;21.95;71.38;99663.78;1596455;88;21053;-77
2021/07/30 02:40:17;;;;;;;5.15;4.85;;;;;;;21.97;71.15;99669.73;1569116;89;21076;-79
2021/07/30 02:42:43;;;;;;;5.28;3.55;;;;;;;21.96;70.95;99666.22;1597484;88;20991;-78
2021/07/30 02:45:10;;;;;;;3.50;3.30;;;;;;;21.96;70.97;99675.71;1600000;88;21527;-79
2021/07/30 02:47:37;;;;;;;5.05;4.75;;;;;;;21.96;70.97;99675.71;1583491;88;21178;-78
2021/07/30 02:50:04;;;;;;;6.20;4.45;;;;;;;21.96;70.80;99685.20;1587459;88;21144;-77
2021/07/30 02:52:31;;;;;;;4.30;3.92;;;;;;;21.93;71.18;99687.11;1592480;88;21273;-76
2021/07/30 02:54:57;;;;;;;5.10;4.30;;;;;;;21.92;70.78;99698.24;1592192;88;21140;-77
2021/07/30 02:57:23;;;;;;;;;;;;;;;21.95;70.86;99699.85;1620698;87;20999;-76
2021/07/30 02:59:48;;;;;;;4.55;4.20;;;;;;;21.96;70.75;99697.42;1608366;87;20180;-77
2021/07/30 03:02:15;;;;;;;4.78;4.22;;;;;;;21.93;70.56;99703.39;1621962;87;21110;-76
2021/07/30 03:04:41;;;;;;;6.58;5.03;;;;;;;21.96;70.64;99706.92;1624237;87;21130;-78
2021/07/30 03:07:08;;;;;;;4.42;4.12;;;;;;;22.05;70.41;99717.17;1616008;87;21123;-77
2021/07/30 03:09:35;;;;;;;4.50;4.08;;;;;;;22.33;69.57;99719.75;1614541;87;21594;-78
2021/07/30 03:12:02;;;;;;;6.50;4.58;;;;;;;22.76;68.01;99714.55;1614325;87;21561;-77
2021/07/30 03:14:27;;;;;;;4.20;3.92;;;;;;;23.21;66.19;99715.81;1622247;87;21114;-79
2021/07/30 03:16:54;;;;;;;4.67;4.37;;;;;;;23.57;64.58;99718.14;1623177;87;21059;-77
2021/07/30 03:19:20;;;;;;;4.53;4.22;;;;;;;23.86;63.73;99725.67;1623473;87;21523;-79
2021/07/30 03:21:46;;;;;;;4.37;3.55;;;;;;;24.13;62.64;99726.98;1623637;87;21054;-77
2021/07/30 03:24:12;;;;;;;4.05;3.67;;;;;;;24.34;61.79;99725.33;1634944;87;21638;-79
2021/07/30 03:26:39;;;;;;;5.00;4.55;;;;;;;24.52;60.90;99732.69;1620394;87;21090;-78
2021/07/30 03:29:05;;;;;;;4.40;4.03;;;;;;;24.67;60.70;99733.80;1619742;87;20996;-76
2021/07/30 03:31:31;;;;;;;5.50;4.95;;;;;;;24.82;59.97;99729.22;1620538;87;21539;-79
2021/07/30 03:33:58;;;;;;;5.17;4.87;;;;;;;25.00;59.56;99736.55;1604978;87;21575;-79
2021/07/30 03:36:24;;;;;;;4.20;3.90;;;;;;;25.18;58.54;99735.42;1602558;88;21046;-80
2021/07/30 03:38:50;;;;;;;3.95;3.65;;;;;;;25.35;58.23;99739.75;1610495;88;21111;-81
2021/07/30 03:41:16;;;;;;;4.25;3.95;;;;;;;25.48;57.84;99745.54;1609474;88;21000;-80
2021/07/30 03:43:43;;;;;;;4.55;4.25;;;;;;;25.68;57.36;99752.53;1614633;88;21075;-80
2021/07/30 03:46:09;;;;;;;4.25;3.98;;;;;;;25.93;56.50;99745.19;1629678;87;21075;-80
2021/07/30 03:48:36;;;;;;;4.95;4.55;;;;;;;26.13;55.92;99747.26;1633544;88;21280;-81
2021/07/30 03:51:02;;;;;;;3.90;3.70;;;;;;;26.29;55.39;99751.24;1636974;88;21075;-81
2021/07/30 03:53:29;;;;;;;4.95;3.65;;;;;;;26.48;54.84;99764.74;1633036;88;21051;-81
2021/07/30 03:55:55;;;;;;;3.90;3.62;;;;;;;26.65;54.42;99761.94;1640169;86;21108;-80
2021/07/30 03:58:21;;;;;;;3.65;3.45;;;;;;;26.76;53.79;99760.58;1645941;86;21014;-81
2021/07/30 04:00:47;;;;;;;4.05;3.80;;;;;;;26.89;53.32;99769.84;1644355;85;21047;-81
2021/07/30 04:03:13;;;;;;;4.95;4.40;;;;;;;27.06;52.89;99763.67;1626018;86;21088;-84
2021/07/30 04:05:40;;;;;;;3.35;3.17;;;;;;;27.15;52.45;99772.17;1587227;89;21149;-78
2021/07/30 04:08:06;;;;;;;9.03;4.05;;;;;;;27.22;52.47;99775.02;1610155;87;21039;-77
2021/07/30 04:10:32;;;;;;;3.42;3.22;;;;;;;27.36;51.95;99773.04;1610337;89;21025;-81
2021/07/30 04:12:59;;;;;;;6.05;3.80;;;;;;;27.47;52.00;99780.42;1652872;85;21509;-82
2021/07/30 04:15:26;;;;;;;3.65;3.37;;;;;;;27.60;51.53;99779.52;1664540;85;21027;-76
2021/07/30 04:17:53;;;;;;;7.47;4.15;;;;;;;27.85;50.89;99781.29;1653495;85;21067;-76
2021/07/30 04:20:19;;;;;;;4.12;3.17;;;;;;;28.05;50.74;99784.84;1682892;84;20943;-75
2021/07/30 04:22:47;;;;;;;4.28;3.98;;;;;;;28.32;49.89;99784.31;1657864;85;21064;-76
2021/07/30 04:25:13;;;;;;;3.22;3.12;;;;;;;28.64;49.50;99785.01;1653997;85;20951;-76
2021/07/30 04:27:39;;;;;;;4.00;3.80;;;;;;;29.01;48.20;99781.32;1656048;85;21007;-78
2021/07/30 04:30:06;;;;;;;3.45;3.17;;;;;;;29.23;47.58;99781.14;1654461;85;21069;-78
2021/07/30 04:32:32;;;;;;;3.20;3.00;;;;;;;29.18;47.56;99777.22;1648326;85;21071;-75
2021/07/30 04:34:58;;;;;;;3.55;3.35;;;;;;;29.30;47.46;99778.70;1649116;85;21095;-76
2021/07/30 04:37:24;;;;;;;3.25;3.08;;;;;;;29.51;47.15;99781.53;1641337;85;21198;-76
2021/07/30 04:39:50;;;;;;;3.52;3.27;;;;;;;29.64;46.62;99781.08;1638125;86;21628;-76
2021/07/30 04:42:17;;;;;;;5.25;4.50;;;;;;;29.77;46.70;99782.60;1654508;85;21202;-76
2021/07/30 04:44:44;;;;;;;3.70;3.50;;;;;;;29.92;46.13;99782.61;1642684;86;21024;-76
2021/07/30 04:47:12;;;;;;;4.03;3.83;;;;;;;30.05;46.13;99779.61;1658970;85;21018;-76
2021/07/30 04:49:40;;;;;;;3.17;2.90;;;;;;;30.19;45.22;99777.97;1631364;86;21199;-76
2021/07/30 04:52:09;;;;;;;3.22;3.02;;;;;;;30.28;45.58;99779.30;1649051;85;21091;-76
2021/07/30 04:54:37;;;;;;;4.40;3.85;;;;;;;30.45;45.25;99781.94;1650942;85;21700;-75
2021/07/30 04:57:03;;;;;;;3.67;3.50;;;;;;;30.58;44.71;99779.26;1636759;85;21144;-76
2021/07/30 04:59:29;;;;;;;3.50;3.20;;;;;;;30.73;43.55;99775.89;1619934;87;21022;-76
2021/07/30 05:01:55;;;;;;;3.80;3.30;;;;;;;30.64;43.83;99780.66;1660274;83;21587;-76
2021/07/30 05:04:21;;;;;;;5.42;3.60;;;;;;;30.48;44.28;99779.10;1659621;85;21361;-77
2021/07/30 05:06:47;;;;;;;6.25;3.02;;;;;;;30.53;43.92;99780.83;1660651;85;21000;-77
2021/07/30 05:09:13;;;;;;;2.87;2.77;;;;;;;30.64;43.83;99786.16;1662742;85;21572;-78
2021/07/30 05:11:41;;;;;;;3.72;3.42;;;;;;;30.75;43.40;99784.60;1661718;85;21921;-76
2021/07/30 05:14:08;;;;;;;3.58;3.30;;;;;;;30.81;42.67;99779.70;1663083;85;21106;-75
2021/07/30 05:16:35;;;;;;;2.95;2.80;;;;;;;30.56;43.14;99782.34;1662122;85;20989;-76
2021/07/30 05:19:03;;;;;;;3.77;2.67;;;;;;;30.40;43.61;99779.41;1659266;85;21086;-74
2021/07/30 05:21:29;;;;;;;4.67;3.95;;;;;;;30.09;43.70;99781.92;1661410;85;20998;-77
2021/07/30 05:23:55;;;;;;;3.45;3.15;;;;;;;29.76;44.82;99786.47;1663820;85;21011;-76
2021/07/30 05:26:21;;;;;;;3.37;3.27;;;;;;;29.69;45.16;99782.85;1650247;85;21076;-76
2021/07/30 05:28:55;;;;;;;3.65;3.30;;;;;;;29.55;45.27;99784.42;1634823;85;21107;-79
2021/07/30 05:31:22;;;;;;;3.42;3.20;;;;;;;29.38;45.93;99785.88;1648709;85;21561;-76
2021/07/30 05:33:49;;;;;;;4.42;4.12;;;;;;;29.37;46.01;99790.56;1649032;85;21691;-75
2021/07/30 05:36:19;;;;;;;3.50;3.17;;;;;;;29.46;45.27;99789.97;1650442;85;21632;-76
2021/07/30 05:38:49;;;;;;;3.75;3.52;;;;;;;29.50;45.06;99787.37;1650221;85;21088;-76
2021/07/30 05:41:19;;;;;;;3.40;3.20;;;;;;;29.51;45.52;99794.46;1647127;85;21064;-76
2021/07/30 05:43:52;;;;;;;3.25;3.05;;;;;;;29.58;44.97;99794.77;1648671;85;21133;-76
2021/07/30 05:46:19;;;;;;;3.65;3.37;;;;;;;29.62;44.87;99794.91;1651827;85;21566;-74
2021/07/30 05:48:52;;;;;;;3.12;2.83;;;;;;;29.58;45.03;99802.20;1646900;85;21056;-76
2021/07/30 05:51:18;;;;;;;3.42;3.33;;;;;;;29.61;45.29;99795.48;1648809;85;21271;-76
2021/07/30 05:53:44;;;;;;;3.80;3.60;;;;;;;29.44;45.19;99795.53;1639352;85;21103;-75
2021/07/30 05:56:12;;;;;;;3.50;3.17;;;;;;;29.29;46.06;99797.69;1648331;85;21548;-74
2021/07/30 05:58:38;;;;;;;3.22;3.02;;;;;;;29.40;46.07;99796.75;1647742;87;21408;-74
2021/07/30 06:01:04;;;;;;;3.15;2.87;;;;;;;29.65;45.90;99793.69;1650561;85;21588;-76
2021/07/30 06:03:30;;;;;;;5.45;3.37;;;;;;;29.75;45.14;99788.42;1650548;85;21017;-79
2021/07/30 06:05:56;;;;;;;3.10;3.00;;;;;;;29.87;45.30;99790.45;1648788;85;20958;-76
2021/07/30 06:08:22;;;;;;;2.95;2.83;;;;;;;29.92;44.33;99788.90;1651295;85;21132;-77
2021/07/30 06:10:56;;;;;;;5.05;4.75;;;;;;;29.85;44.71;99791.36;1650282;85;21775;-79
2021/07/30 06:13:24;;;;;;;4.90;4.47;;;;;;;29.87;45.26;99787.70;1650847;85;21300;-77
2021/07/30 06:15:50;;;;;;;3.50;3.40;;;;;;;30.06;44.37;99783.15;1649075;85;21081;-76
2021/07/30 06:18:16;;;;;;;3.10;2.90;;;;;;;30.15;43.89;99781.73;1642461;85;21592;-80
2021/07/30 06:20:51;;;;;;;3.22;3.00;;;;;;;30.11;44.21;99779.42;1644809;85;21056;-77
2021/07/30 06:23:30;;;;;;;3.62;3.33;;;;;;;30.17;44.21;99779.45;1610289;88;21049;-80
2021/07/30 06:25:56;;;;;;;3.40;3.20;;;;;;;30.25;43.81;99781.33;1617767;88;21428;-80
2021/07/30 06:28:23;;;;;;;4.05;3.42;;;;;;;30.28;44.17;99779.30;1624567;87;21154;-79
2021/07/30 06:30:51;;;;;;;3.35;3.15;;;;;;;30.34;44.28;99782.10;1624715;88;21535;-78
2021/07/30 06:33:18;;;;;;;3.08;2.87;;;;;;;30.44;43.62;99788.59;1624602;88;21074;-77
2021/07/30 06:35:51;;;;;;;4.58;3.70;;;;;;;30.44;45.03;99775.39;1633679;85;21174;-77
2021/07/30 06:38:17;;;;;;;3.85;3.62;;;;;;;30.41;43.68;99777.45;1651338;85;21114;-77
2021/07/30 06:40:47;;;;;;;4.30;3.50;;;;;;;30.16;44.52;99769.03;1643105;86;21038;-75
2021/07/30 06:43:13;;;;;;;3.72;3.52;;;;;;;29.98;44.03;99770.28;1649573;85;21200;-78
2021/07/30 06:45:40;;;;;;;3.35;3.15;;;;;;;29.70;45.40;99772.91;1648342;85;21048;-77
2021/07/30 06:48:06;;;;;;;4.03;3.42;;;;;;;29.49;46.20;99765.95;1644766;85;21233;-82
2021/07/30 06:50:33;;;;;;;6.75;3.10;;;;;;;29.51;45.90;99776.04;1649388;85;21114;-77
2021/07/30 06:53:00;;;;;;;5.87;3.60;;;;;;;29.72;44.63;99768.44;1648217;86;21052;-77
2021/07/30 06:55:26;;;;;;;3.60;3.40;;;;;;;29.89;44.67;99767.02;1645909;85;21080;-78
2021/07/30 06:57:54;;;;;;;4.10;3.40;;;;;;;30.01;44.31;99766.88;1643181;87;21050;-80
2021/07/30 07:00:21;;;;;;;3.90;2.85;;;;;;;30.12;43.49;99767.27;1645327;85;21117;-80
2021/07/30 07:02:48;;;;;;;4.28;3.50;;;;;;;30.11;43.07;99771.17;1673501;85;21054;-79
2021/07/30 07:05:16;;;;;;;3.12;2.87;;;;;;;29.16;43.35;99634.60;1668471;84;21032;-77
2021/07/30 07:07:48;;;;;;;3.45;3.30;;;;;;;29.83;43.57;99760.09;1671954;84;21069;-78
2021/07/30 07:10:34;;;;;;;3.12;2.92;;;;;;;29.85;43.53;99766.05;1665916;85;21069;-77
2021/07/30 07:15:49;;;;;;;5.58;2.65;;;;;;;29.95;43.51;99758.02;1530364;91;21203;-77
2021/07/30 07:18:22;;;;;;;6.58;3.15;;;;;;;29.93;42.52;99760.84;1554460;91;21098;-78
2021/07/30 07:23:36;;;;;;;2.75;2.65;;;;;;;30.15;43.02;99783.90;1560302;86;21072;-79
2021/07/30 07:26:04;;;;;;;2.95;2.75;;;;;;;29.98;43.00;99749.09;1663763;85;21061;-77
2021/07/30 07:28:31;;;;;;;8.55;3.35;;;;;;;30.12;42.34;99775.52;1659329;85;21023;-77
2021/07/30 07:30:57;;;;;;;3.55;2.98;;;;;;;29.94;43.17;99764.64;1659672;85;21261;-80
2021/07/30 07:33:30;;;;;;;3.60;3.35;;;;;;;29.79;44.60;99770.71;1668647;85;21200;-79
2021/07/30 07:36:00;;;;;;;3.70;3.33;;;;;;;29.81;44.88;99777.47;1686068;83;21557;-79
2021/07/30 07:38:26;;;;;;;3.35;3.08;;;;;;;29.83;43.55;99775.77;1674085;84;21550;-79
2021/07/30 07:40:53;;;;;;;3.87;3.50;;;;;;;29.76;43.11;99778.23;1689172;84;22110;-79
2021/07/30 07:43:21;;;;;;;3.30;3.12;;;;;;;29.57;43.56;99779.41;1684088;83;21614;-80
2021/07/30 07:45:47;;;;;;;7.83;3.37;;;;;;;29.37;44.21;99782.33;1690314;83;20990;-77
2021/07/30 07:48:13;;;;;;;3.30;2.87;;;;;;;29.22;44.29;99783.66;1675478;85;21129;-77
2021/07/30 07:50:40;;;;;;;4.08;3.25;;;;;;;29.04;44.05;99779.31;1688374;83;21032;-78
2021/07/30 07:53:17;;;;;;;3.10;2.90;;;;;;;28.91;44.72;99786.05;1680605;83;21070;-77
2021/07/30 07:55:44;;;;;;;3.17;3.08;;;;;;;28.84;44.55;99787.09;1683827;83;21014;-76
2021/07/30 07:58:11;;;;;;;3.85;3.60;;;;;;;28.81;44.92;99791.05;1691821;84;21098;-78
2021/07/30 08:00:41;;;;;;;3.45;3.15;;;;;;;28.82;45.46;99792.64;1668330;83;20970;-77
2021/07/30 08:03:07;;;;;;;3.20;3.02;;;;;;;28.82;44.66;99792.10;1664052;85;21010;-78
2021/07/30 08:05:42;;;;;;;3.37;3.17;;;;;;;28.77;44.79;99795.00;1664635;85;21375;-79
2021/07/30 08:08:08;;;;;;;3.45;3.25;;;;;;;28.78;44.51;99791.11;1663273;85;21116;-78
2021/07/30 08:10:35;;;;;;;3.05;2.90;;;;;;;28.80;44.41;99792.99;1663907;85;21022;-77
2021/07/30 08:13:03;;;;;;;4.22;3.58;;;;;;;28.73;44.35;99798.16;1663102;85;21608;-78
2021/07/30 08:15:29;;;;;;;2.75;2.65;;;;;;;28.61;44.88;99796.03;1656032;85;21772;-78
2021/07/30 08:17:55;;;;;;;3.12;2.92;;;;;;;28.52;44.87;99794.68;1654370;85;21593;-76
2021/07/30 08:20:21;;;;;;;3.37;3.17;;;;;;;28.43;44.50;99789.73;1668085;85;21105;-76
2021/07/30 08:22:48;;;;;;;2.10;1.90;;;;;;;28.32;44.23;99791.16;1652436;85;21712;-80
2021/07/30 08:25:14;;;;;;;2.83;2.62;;;;;;;28.32;43.69;99790.59;1652364;85;21001;-78
2021/07/30 08:27:40;;;;;;;2.90;2.70;;;;;;;28.39;43.97;99784.65;1657815;85;21058;-79
2021/07/30 08:30:08;;;;;;;2.30;2.08;;;;;;;28.49;43.61;99795.86;1658994;85;21089;-79
2021/07/30 08:32:34;;;;;;;2.77;2.65;;;;;;;28.62;42.38;99799.61;1661225;85;21043;-80
2021/07/30 08:35:02;;;;;;;2.37;2.17;;;;;;;28.62;42.80;99794.92;1647207;85;21628;-79
2021/07/30 08:37:28;;;;;;;2.80;2.60;;;;;;;28.65;42.60;99789.34;1652706;85;21096;-80
2021/07/30 08:39:56;;;;;;;1.90;1.90;;;;;;;28.68;42.58;99792.82;1642545;85;21652;-80
2021/07/30 08:42:22;;;;;;;2.62;2.42;;;;;;;28.72;43.63;99789.67;1662425;85;21104;-83
2021/07/30 08:44:48;;;;;;;2.55;2.45;;;;;;;28.80;42.33;99790.80;1657999;85;21584;-80
2021/07/30 08:47:19;;;;;;;2.55;2.37;;;;;;;28.80;42.63;99786.67;1646528;85;21156;-81
2021/07/30 08:49:45;;;;;;;2.20;1.85;;;;;;;28.83;41.87;99785.47;1655866;85;21542;-82
2021/07/30 08:52:12;;;;;;;2.20;2.10;;;;;;;28.87;41.38;99785.05;1663586;85;21059;-80
2021/07/30 08:54:40;;;;;;;2.37;1.85;;;;;;;28.88;41.02;99785.31;1646063;85;21042;-82
2021/07/30 08:57:11;;;;;;;1.95;1.72;;;;;;;28.91;39.87;99792.91;1652273;85;21195;-80
2021/07/30 08:59:39;;;;;;;3.62;2.37;;;;;;;28.88;40.10;99792.17;1636881;85;21047;-81
2021/07/30 09:02:09;;;;;;;1.77;1.77;;;;;;;28.80;40.57;99788.05;1646082;86;21022;-80
2021/07/30 09:04:35;;;;;;;2.25;2.15;;;;;;;28.69;41.59;99787.59;1643948;86;21038;-82
2021/07/30 09:07:04;;;;;;;2.77;1.80;;;;;;;28.67;41.13;99788.45;1643307;87;21021;-81
2021/07/30 09:09:33;;;;;;;2.80;2.50;;;;;;;28.61;40.93;99787.02;1647522;86;21189;-81
2021/07/30 09:12:04;;;;;;;2.50;2.27;;;;;;;28.53;41.62;99785.31;1640169;86;21092;-81
2021/07/30 09:14:44;;;;;;;2.52;2.42;;;;;;;28.56;42.00;99788.53;1632111;86;21053;-82
2021/07/30 09:17:10;;;;;;;1.95;1.82;;;;;;;28.62;41.83;99781.78;1632643;86;21112;-81
2021/07/30 09:20:08;;;;;;;3.02;1.55;;;;;;;28.70;38.92;99788.62;1628558;86;21039;-81
2021/07/30 09:22:50;;;;;;;1.45;1.45;;;;;;;28.77;39.41;99785.41;1628442;85;21072;-81
2021/07/30 09:25:36;;;;;;;1.52;1.52;;;;;;;28.80;39.67;99781.20;1649498;85;21230;-81
2021/07/30 09:28:08;;;;;;;2.20;2.02;;;;;;;28.79;39.75;99774.91;1649541;85;21095;-81
2021/07/30 09:30:35;;;;;;;2.33;1.65;;;;;;;28.79;39.66;99771.38;1641974;85;21709;-81
2021/07/30 09:33:02;;;;;;;2.02;1.92;;;;;;;28.81;39.20;99774.59;1649393;87;21172;-77
2021/07/30 09:35:29;;;;;;;1.90;1.80;;;;;;;28.81;38.65;99777.34;1644345;85;21132;-82
2021/07/30 09:38:16;;;;;;;1.98;1.80;;;;;;;28.78;38.37;99769.75;1646147;85;21034;-81
2021/07/30 09:40:43;;;;;;;2.05;1.50;;;;;;;28.82;38.07;99782.50;1643454;85;21109;-82
2021/07/30 09:43:23;;;;;;;1.60;1.52;;;;;;;28.78;37.88;99780.14;1648037;85;21563;-82
2021/07/30 09:45:56;;;;;;;1.57;1.57;;;;;;;28.78;38.09;99773.86;1657672;84;21026;-81
2021/07/30 09:48:28;;;;;;;1.70;1.60;;;;;;;28.86;37.98;99773.86;1670130;84;21092;-81
2021/07/30 09:50:54;;;;;;;1.60;1.60;;;;;;;28.92;37.22;99772.55;1669945;85;21018;-81
2021/07/30 09:53:20;;;;;;;1.57;1.47;;;;;;;28.90;37.40;99770.70;1676131;84;21527;-82
2021/07/30 09:55:47;;;;;;;1.57;1.57;;;;;;;28.92;37.80;99764.33;1658909;84;21212;-80
2021/07/30 09:58:13;;;;;;;2.22;2.17;;;;;;;28.93;38.12;99763.20;1649828;86;21078;-81
2021/07/30 10:00:40;;;;;;;1.32;1.32;;;;;;;28.95;38.11;99768.34;1655487;85;21045;-80
2021/07/30 10:03:09;;;;;;;3.00;2.10;;;;;;;29.02;37.58;99770.60;1649883;85;20966;-81
2021/07/30 10:05:36;;;;;;;1.12;1.07;;;;;;;29.09;37.12;99764.05;1639037;85;21240;-81
2021/07/30 10:08:05;;;;;;;1.22;1.10;;;;;;;29.20;36.79;99769.46;1664135;85;21034;-80
2021/07/30 10:10:32;;;;;;;1.12;1.10;;;;;;;29.29;35.87;99768.05;1662860;85;21045;-81
2021/07/30 10:13:00;;;;;;;1.72;1.62;;;;;;;29.36;35.81;99762.06;1649482;85;21327;-80
2021/07/30 10:15:27;;;;;;;1.32;1.20;;;;;;;29.38;36.02;99760.59;1661464;85;21059;-81
2021/07/30 10:17:56;;;;;;;1.20;1.20;;;;;;;29.36;36.36;99757.37;1657821;86;21084;-80
2021/07/30 10:20:25;;;;;;;2.35;1.22;;;;;;;29.37;36.51;99749.97;1664587;86;21068;-82
2021/07/30 10:23:11;;;;;;;1.42;1.42;;;;;;;29.36;36.87;99749.71;1663628;85;21107;-81
2021/07/30 10:25:43;;;;;;;1.65;1.52;;;;;;;29.35;36.79;99759.89;1664792;85;21171;-82
2021/07/30 10:28:21;;;;;;;1.45;1.37;;;;;;;29.33;37.40;99751.73;1662087;85;21009;-81
2021/07/30 10:31:02;;;;;;;1.40;1.30;;;;;;;29.39;36.94;99753.19;1656668;85;21068;-81
2021/07/30 10:33:38;;;;;;;1.22;1.22;;;;;;;29.41;36.61;99755.03;1654708;85;21020;-82
2021/07/30 10:36:07;;;;;;;2.20;1.72;;;;;;;29.41;35.68;99755.83;1664105;85;20956;-80
2021/07/30 10:38:36;;;;;;;1.75;1.50;;;;;;;29.40;35.20;99757.52;1664563;85;21634;-82
2021/07/30 10:41:11;;;;;;;2.45;1.10;;;;;;;29.37;35.61;99752.70;1664764;85;21137;-81
2021/07/30 10:44:01;;;;;;;2.52;1.30;;;;;;;29.34;36.48;99745.12;1663017;85;21107;-81
2021/07/30 10:46:28;;;;;;;1.42;1.37;;;;;;;29.36;35.48;99746.39;1661604;85;21572;-82
2021/07/30 10:48:54;;;;;;;2.80;2.70;;;;;;;29.38;35.87;99747.44;1662610;85;21075;-82
2021/07/30 10:51:27;;;;;;;2.75;1.82;;;;;;;29.46;35.81;99739.73;1664811;85;21028;-80
2021/07/30 10:54:03;;;;;;;1.57;1.35;;;;;;;29.50;36.07;99746.99;1662539;85;21085;-82
2021/07/30 10:56:39;;;;;;;1.85;1.30;;;;;;;29.53;36.08;99752.38;1651966;84;21116;-81
2021/07/30 11:01:58;;;;;;;3.62;1.47;;;;;;;29.47;35.71;99735.86;1730072;79;23261;-80
2021/07/30 11:04:25;;;;;;;1.20;1.20;;;;;;;29.42;35.96;99733.30;1682332;84;20990;-78
2021/07/30 11:06:55;;;;;;;4.33;3.90;;;;;;;29.46;35.78;99733.69;1672481;83;21216;-80
2021/07/30 11:09:25;;;;;;;1.70;1.60;;;;;;;29.47;35.52;99727.63;1677552;83;22089;-79
2021/07/30 11:12:04;;;;;;;1.57;1.57;;;;;;;29.50;35.57;99729.14;1690430;82;21025;-78
2021/07/30 11:14:43;;;;;;;1.20;1.10;;;;;;;29.56;35.24;99715.23;1700365;82;21104;-79
2021/07/30 11:17:13;;;;;;;2.55;1.30;;;;;;;29.62;34.58;99715.28;1699110;82;21027;-77
2021/07/30 11:19:47;;;;;;;3.17;0.82;;;;;;;29.63;33.78;99719.62;1690951;82;21204;-79
2021/07/30 11:22:19;;;;;;;1.30;1.30;;;;;;;29.62;33.54;99720.77;1704882;82;21037;-81
2021/07/30 11:24:49;;;;;;;1.10;1.10;;;;;;;29.66;33.52;99713.47;1670940;83;21655;-79
2021/07/30 11:27:20;;;;;;;1.15;1.15;;;;;;;29.66;34.36;99707.98;1659457;83;21088;-78
2021/07/30 11:29:53;;;;;;;1.02;1.02;;;;;;;29.63;34.61;99710.00;1645472;84;21104;-78
2021/07/30 11:32:23;;;;;;;1.57;1.30;;;;;;;29.61;34.43;99703.50;1677619;83;21180;-78
2021/07/30 11:34:51;;;;;;;1.27;1.27;;;;;;;29.59;34.70;99703.03;1696974;83;21518;-79
2021/07/30 11:37:28;;;;;;;1.30;1.20;;;;;;;29.54;35.02;99709.28;1679299;83;21109;-80
2021/07/30 11:39:54;;;;;;;1.40;1.00;;;;;;;29.45;35.52;99705.19;1703735;83;21054;-78
2021/07/30 11:42:30;;;;;;;1.45;1.35;;;;;;;29.38;36.18;99707.64;1665093;84;21132;-79
2021/07/30 11:45:04;;;;;;;1.07;1.07;;;;;;;29.36;36.25;99707.17;1658112;84;21056;-80
2021/07/30 11:47:32;;;;;;;1.75;1.65;;;;;;;29.36;35.86;99701.67;1678410;83;21096;-81
2021/07/30 11:50:18;;;;;;;1.40;1.30;;;;;;;29.32;35.87;99694.67;1691094;83;20990;-79
2021/07/30 11:52:43;;;;;;;1.25;1.15;;;;;;;29.27;35.36;99691.55;1680623;84;21333;-81
2021/07/30 11:55:21;;;;;;;1.00;1.00;;;;;;;29.25;35.08;99695.74;1691030;84;21144;-80